Аэропорт: Алыкель. Норильск

ICAO: UOOO

METAR:
2020-06-02 08:00:00
UOOO 020800Z 02006MPS 9999 SCT032 11/04 Q1005 R01/CLRD60 NOSIG RMK QFE739/0985
METAR:
2020-06-02 04:59:00
TAF UOOO 020459Z 0206/0306 VRB01MPS 9999 SCT025CB TEMPO 0206/0216 28003G08MPS 6000 -SHRA BKN016CB FM021600 36003G10MPS 4000 BR BKN011CB TEMPO 0216/0303 1200 -SHRA BR SCT004 BKN008CB